Time;durP1;ratioP1;P1;durP2;ratioP2;P2;SDS_P1;SDS_P2;PMS_P1;PMS_P2;Temp;Humidity;BMP_temperature;BMP_pressure;BME280_temperature;BME280_humidity;BME280_pressure;Samples;Min_cycle;Max_cycle;Signal;HPM_P1;HPM_P2
2023/04/06 00:00:17;;;;;;;10.13;5.70;;;;;;;-2.31;100.00;96022.09;1042563;28;20596;-72
2023/04/06 00:00:48;;;;;;;11.00;5.90;;;;;;;-2.30;100.00;96026.25;1036573;28;20010;-71
2023/04/06 00:01:18;;;;;;;10.02;6.28;;;;;;;-2.30;100.00;96026.25;1034566;28;20018;-72
2023/04/06 00:01:49;;;;;;;12.20;6.93;;;;;;;-2.26;100.00;96026.69;1032225;28;20496;-71
2023/04/06 00:02:20;;;;;;;10.94;6.00;;;;;;;-2.24;100.00;96025.56;1038445;28;20057;-71
2023/04/06 00:02:51;;;;;;;9.23;5.90;;;;;;;-2.24;100.00;96024.75;1038921;28;20028;-72
2023/04/06 00:03:22;;;;;;;10.02;6.54;;;;;;;-2.18;100.00;96034.31;1042889;28;20098;-71
2023/04/06 00:03:52;;;;;;;11.63;6.28;;;;;;;-2.16;100.00;96029.81;1046903;28;20666;-71
2023/04/06 00:04:23;;;;;;;9.47;6.53;;;;;;;-2.20;100.00;96026.78;1046731;28;20151;-71
2023/04/06 00:04:53;;;;;;;12.10;6.87;;;;;;;-2.14;100.00;96031.22;1033997;28;20032;-72
2023/04/06 00:05:24;;;;;;;10.47;6.43;;;;;;;-2.11;100.00;96029.25;1038538;28;20045;-72
2023/04/06 00:05:55;;;;;;;11.05;6.93;;;;;;;-2.08;100.00;96029.72;1042937;28;20048;-71
2023/04/06 00:06:26;;;;;;;13.02;6.40;;;;;;;-2.06;100.00;96032.13;1038665;28;20041;-69
2023/04/06 00:06:57;;;;;;;15.52;6.75;;;;;;;-2.05;100.00;96019.06;1044749;28;20029;-72
2023/04/06 00:07:28;;;;;;;10.30;7.00;;;;;;;-2.00;100.00;96021.13;1042577;28;20029;-71
2023/04/06 00:07:58;;;;;;;10.87;7.10;;;;;;;-1.97;100.00;96026.72;1038876;28;20097;-71
2023/04/06 00:08:29;;;;;;;10.53;6.30;;;;;;;-1.93;100.00;96027.16;1038664;28;20032;-71
2023/04/06 00:08:59;;;;;;;10.20;6.63;;;;;;;-1.92;100.00;96031.31;1042762;28;20371;-71
2023/04/06 00:09:30;;;;;;;11.13;6.27;;;;;;;-1.88;100.00;96027.41;1038564;28;20026;-71
2023/04/06 00:10:01;;;;;;;9.30;5.83;;;;;;;-1.92;100.00;96019.25;1034672;28;20125;-71
2023/04/06 00:10:31;;;;;;;13.37;6.97;;;;;;;-1.81;100.00;96024.94;1030065;28;20100;-71
2023/04/06 00:11:02;;;;;;;11.87;6.67;;;;;;;-1.82;100.00;96026.72;1026856;28;20373;-71
2023/04/06 00:11:32;;;;;;;10.50;6.80;;;;;;;-1.77;100.00;96021.84;1030774;28;20077;-72
2023/04/06 00:12:03;;;;;;;11.27;6.93;;;;;;;-1.78;100.00;96015.09;1034634;28;20411;-73
2023/04/06 00:12:33;;;;;;;11.63;6.13;;;;;;;-1.71;100.00;96013.44;1035882;28;20034;-72
2023/04/06 00:13:05;;;;;;;10.33;6.27;;;;;;;-1.61;100.00;96022.63;1034592;28;20749;-71
2023/04/06 00:13:35;;;;;;;10.73;6.80;;;;;;;-1.59;100.00;96020.69;1034804;28;20042;-72
2023/04/06 00:14:06;;;;;;;12.33;6.57;;;;;;;-1.64;100.00;96010.09;1039074;28;20057;-71
2023/04/06 00:14:37;;;;;;;8.97;6.30;;;;;;;-1.54;100.00;96015.78;1037841;28;20112;-71
2023/04/06 00:15:08;;;;;;;9.17;5.90;;;;;;;-1.53;100.00;96013.03;1042883;28;20047;-72
2023/04/06 00:15:38;;;;;;;14.43;6.60;;;;;;;-1.53;100.00;96009.69;1038410;28;20060;-72
2023/04/06 00:16:09;;;;;;;11.20;6.37;;;;;;;-1.51;100.00;96010.28;1034479;28;20084;-71
2023/04/06 00:16:40;;;;;;;10.33;6.13;;;;;;;-1.57;100.00;96005.88;1038924;28;20065;-72
2023/04/06 00:17:11;;;;;;;12.00;6.27;;;;;;;-1.52;100.00;96011.25;1034658;28;20021;-71
2023/04/06 00:17:41;;;;;;;12.73;6.23;;;;;;;-1.51;100.00;96012.84;1030234;28;20019;-72
2023/04/06 00:18:12;;;;;;;11.43;6.37;;;;;;;-1.53;100.00;96010.47;1034812;28;20940;-70
2023/04/06 00:18:42;;;;;;;9.53;6.00;;;;;;;-1.49;100.00;96018.63;1034534;28;20233;-71
2023/04/06 00:19:13;;;;;;;12.00;6.60;;;;;;;-1.50;100.00;96014.47;1043223;28;20048;-71
2023/04/06 00:19:43;;;;;;;10.98;6.55;;;;;;;-1.49;100.00;96010.91;1050825;28;20039;-71
2023/04/06 00:20:14;;;;;;;13.60;6.25;;;;;;;-1.50;100.00;96010.09;1042577;28;20037;-71
2023/04/06 00:20:45;;;;;;;11.00;6.67;;;;;;;-1.48;100.00;96004.78;1042743;28;20017;-71
2023/04/06 00:21:15;;;;;;;9.70;6.13;;;;;;;-1.47;100.00;96011.53;1038389;28;20192;-72
2023/04/06 00:21:46;;;;;;;10.85;7.15;;;;;;;-1.47;100.00;96011.53;1038751;28;20025;-71
2023/04/06 00:22:16;;;;;;;10.90;6.05;;;;;;;-1.48;100.00;96018.44;1043388;28;20048;-71
2023/04/06 00:22:47;;;;;;;11.03;6.67;;;;;;;-1.50;100.00;96012.69;1042870;28;20017;-71
2023/04/06 00:23:17;;;;;;;9.03;6.13;;;;;;;-1.49;100.00;96013.47;1042840;28;20035;-72
2023/04/06 00:23:48;;;;;;;10.23;6.63;;;;;;;-1.51;100.00;96015.41;1038511;28;20538;-71
2023/04/06 00:24:18;;;;;;;8.48;6.05;;;;;;;-1.58;100.00;96005.03;1038418;28;20024;-71
2023/04/06 00:24:49;;;;;;;9.60;5.77;;;;;;;-1.52;100.00;96013.84;1038127;28;20132;-70
2023/04/06 00:25:19;;;;;;;9.05;5.97;;;;;;;-1.56;100.00;96002.31;1042551;28;20067;-71
2023/04/06 00:25:50;;;;;;;10.73;6.55;;;;;;;-1.48;100.00;96005.56;1038552;28;20097;-71
2023/04/06 00:26:20;;;;;;;10.95;6.55;;;;;;;-1.55;100.00;95999.53;1038868;28;20080;-71
2023/04/06 00:26:51;;;;;;;9.32;5.88;;;;;;;-1.44;100.00;96021.47;1038507;28;20021;-71
2023/04/06 00:27:21;;;;;;;11.43;6.13;;;;;;;-1.42;100.00;96012.56;1038872;28;20440;-71
2023/04/06 00:27:52;;;;;;;10.38;5.90;;;;;;;-1.44;100.00;96013.75;1038530;28;20056;-71
2023/04/06 00:28:25;;;;;;;10.60;6.10;;;;;;;-1.48;100.00;96002.19;1038602;28;20653;-71
2023/04/06 00:28:56;;;;;;;10.80;6.57;;;;;;;-1.45;100.00;96012.13;1039011;28;20115;-70
2023/04/06 00:29:26;;;;;;;8.93;6.50;;;;;;;-1.46;100.00;96013.91;1039157;28;20108;-71
2023/04/06 00:29:57;;;;;;;10.60;6.40;;;;;;;-1.44;100.00;96006.81;1038568;28;20165;-71
2023/04/06 00:30:28;;;;;;;8.47;6.53;;;;;;;-1.46;100.00;96007.97;1030572;28;20085;-72
2023/04/06 00:30:58;;;;;;;11.00;6.87;;;;;;;-1.46;100.00;96011.34;1030658;28;20057;-71
2023/04/06 00:31:29;;;;;;;9.93;6.18;;;;;;;-1.48;100.00;96008.13;1038260;28;20021;-71
2023/04/06 00:31:59;;;;;;;14.30;6.68;;;;;;;-1.48;100.00;96012.50;1038623;28;20152;-71
2023/04/06 00:32:30;;;;;;;12.20;7.45;;;;;;;-1.51;100.00;96012.84;1046482;28;20102;-71
2023/04/06 00:33:01;;;;;;;9.63;6.28;;;;;;;-1.54;100.00;96014.03;1040937;28;20025;-71
2023/04/06 00:33:32;;;;;;;10.10;6.47;;;;;;;-1.54;100.00;96013.19;1042667;28;20052;-71
2023/04/06 00:34:02;;;;;;;14.27;7.38;;;;;;;-1.57;100.00;96013.59;1030399;28;20022;-71
2023/04/06 00:34:33;;;;;;;10.90;6.97;;;;;;;-1.58;100.00;96010.19;1030125;28;20109;-72
2023/04/06 00:35:04;;;;;;;12.50;6.50;;;;;;;-1.61;100.00;96002.03;1022653;28;20099;-71
2023/04/06 00:35:35;;;;;;;12.08;6.88;;;;;;;-1.53;100.00;96009.69;1034559;28;20022;-71
2023/04/06 00:36:05;;;;;;;10.02;6.80;;;;;;;-1.55;100.00;96009.84;1034502;28;20057;-71
2023/04/06 00:36:36;;;;;;;11.40;6.70;;;;;;;-1.60;100.00;96001.09;1038331;28;20037;-71
2023/04/06 00:37:06;;;;;;;13.32;6.32;;;;;;;-1.55;100.00;96009.03;1030481;28;20121;-71
2023/04/06 00:37:37;;;;;;;10.60;6.95;;;;;;;-1.53;100.00;96013.03;1030190;28;20105;-71
2023/04/06 00:38:07;;;;;;;10.33;7.03;;;;;;;-1.54;100.00;96014.03;1030217;28;20058;-73
2023/04/06 00:38:38;;;;;;;11.47;7.20;;;;;;;-1.61;100.00;95999.47;1030832;28;20548;-73
2023/04/06 00:39:09;;;;;;;12.13;7.03;;;;;;;-1.53;100.00;96013.03;1030383;28;20081;-72
2023/04/06 00:39:40;;;;;;;12.10;6.78;;;;;;;-1.57;100.00;96008.44;1034057;28;20121;-71
2023/04/06 00:40:10;;;;;;;11.82;6.50;;;;;;;-1.58;100.00;96011.97;1038484;28;20030;-72
2023/04/06 00:40:41;;;;;;;11.50;6.97;;;;;;;-1.61;100.00;96005.44;1034443;28;20017;-72
2023/04/06 00:41:12;;;;;;;10.43;6.03;;;;;;;-1.60;100.00;96008.81;1034528;28;20018;-72
2023/04/06 00:41:46;;;;;;;9.38;6.63;;;;;;;-1.62;100.00;96008.16;1033697;28;20059;-72
2023/04/06 00:42:17;;;;;;;12.24;6.76;;;;;;;-1.65;100.00;96004.19;1042174;28;20013;-73
2023/04/06 00:42:48;;;;;;;10.88;7.18;;;;;;;-1.68;100.00;96010.50;1038512;28;20761;-72
2023/04/06 00:43:18;;;;;;;12.10;6.97;;;;;;;-1.70;100.00;96011.66;1042357;28;20074;-72
2023/04/06 00:43:49;;;;;;;10.73;6.88;;;;;;;-1.73;100.00;96010.22;1034290;28;20181;-72
2023/04/06 00:44:20;;;;;;;11.20;7.07;;;;;;;-1.71;100.00;96004.88;1034422;28;20946;-73
2023/04/06 00:44:54;;;;;;;11.10;7.05;;;;;;;-1.73;100.00;96012.00;1021447;29;20023;-72
2023/04/06 00:45:24;;;;;;;10.65;7.40;;;;;;;-1.72;100.00;96005.88;1030168;28;20488;-72
2023/04/06 00:45:55;;;;;;;11.60;7.37;;;;;;;-1.72;100.00;96008.44;1030266;28;20030;-72
2023/04/06 00:46:25;;;;;;;11.18;6.93;;;;;;;-1.73;100.00;96012.78;1031405;28;20010;-72
2023/04/06 00:46:56;;;;;;;9.57;6.97;;;;;;;-1.84;100.00;96005.53;1042517;28;20028;-72
2023/04/06 00:47:26;;;;;;;11.97;7.70;;;;;;;-1.74;100.00;96010.41;1038431;28;20108;-72
2023/04/06 00:47:57;;;;;;;12.70;7.75;;;;;;;-1.75;100.00;96017.31;1038460;28;20009;-73
2023/04/06 00:48:30;;;;;;;12.98;8.02;;;;;;;-1.82;100.00;96005.34;1034132;28;20014;-73
2023/04/06 00:49:00;;;;;;;10.32;7.42;;;;;;;-1.83;100.00;95996.03;1034345;28;20754;-72
2023/04/06 00:49:32;;;;;;;15.00;7.70;;;;;;;-1.78;100.00;96015.09;1034497;28;20021;-72
2023/04/06 00:50:03;;;;;;;14.35;7.40;;;;;;;-1.81;100.00;96012.91;1028734;28;20053;-72
2023/04/06 00:50:33;;;;;;;11.90;7.47;;;;;;;-1.80;100.00;96014.50;1026706;28;20698;-72
2023/04/06 00:51:04;;;;;;;13.67;6.90;;;;;;;-1.81;100.00;96018.03;1030848;28;20522;-72
2023/04/06 00:51:34;;;;;;;11.43;6.87;;;;;;;-1.81;100.00;96010.31;1034193;28;20121;-72
2023/04/06 00:52:05;;;;;;;16.47;7.73;;;;;;;-1.81;100.00;96015.47;1030579;28;20027;-72
2023/04/06 00:52:36;;;;;;;11.60;6.70;;;;;;;-1.83;100.00;96017.41;1034139;28;20744;-72
2023/04/06 00:53:06;;;;;;;11.30;7.57;;;;;;;-1.84;100.00;96015.03;1034446;28;20018;-72
2023/04/06 00:53:37;;;;;;;14.37;8.33;;;;;;;-1.85;100.00;96013.41;1034119;28;20483;-72
2023/04/06 00:54:07;;;;;;;11.67;6.73;;;;;;;-1.87;100.00;96011.03;1030184;28;20078;-72
2023/04/06 00:54:38;;;;;;;10.17;7.43;;;;;;;-1.96;100.00;96007.75;1033651;28;20563;-72
2023/04/06 00:55:08;;;;;;;13.30;7.07;;;;;;;-1.93;100.00;96007.38;1036760;28;20022;-72
2023/04/06 00:55:39;;;;;;;13.70;7.90;;;;;;;-1.91;100.00;96012.38;1038421;28;20025;-72
2023/04/06 00:56:09;;;;;;;16.03;8.30;;;;;;;-1.99;100.00;96002.16;1042748;28;20021;-72
2023/04/06 00:56:41;;;;;;;12.30;7.40;;;;;;;-1.93;100.00;96011.75;1032956;28;20049;-72
2023/04/06 00:57:12;;;;;;;10.57;7.00;;;;;;;-1.97;100.00;96002.78;1034334;28;20101;-73
2023/04/06 00:57:42;;;;;;;10.98;6.70;;;;;;;-1.92;100.00;96008.19;1034429;28;20051;-72
2023/04/06 00:58:13;;;;;;;12.73;7.90;;;;;;;-1.91;100.00;96005.44;1030184;28;20117;-72
2023/04/06 00:58:44;;;;;;;13.13;7.00;;;;;;;-1.91;100.00;96009.81;1020451;28;20121;-72
2023/04/06 00:59:14;;;;;;;12.30;7.63;;;;;;;-1.93;100.00;96011.75;1030208;28;20086;-72
2023/04/06 00:59:45;;;;;;;12.00;7.80;;;;;;;-1.94;100.00;96005.81;1030278;28;20054;-73
2023/04/06 01:00:16;;;;;;;18.77;8.05;;;;;;;-1.93;100.00;96009.16;1037076;28;20021;-72
2023/04/06 01:00:46;;;;;;;13.67;8.10;;;;;;;-2.02;100.00;95997.38;1026084;28;20030;-72
2023/04/06 01:01:17;;;;;;;13.88;7.97;;;;;;;-1.93;100.00;96006.59;1034337;28;20018;-72
2023/04/06 01:01:48;;;;;;;12.18;7.45;;;;;;;-1.93;100.00;96011.75;1034352;28;20029;-72
2023/04/06 01:02:18;;;;;;;12.55;6.88;;;;;;;-1.94;100.00;96010.16;1034292;28;20487;-72
2023/04/06 01:02:49;;;;;;;10.90;7.82;;;;;;;-1.94;100.00;96010.16;1034430;28;20018;-72
2023/04/06 01:03:19;;;;;;;13.57;8.00;;;;;;;-1.97;100.00;96005.34;1030340;28;20101;-72
2023/04/06 01:03:50;;;;;;;13.07;8.17;;;;;;;-1.98;100.00;96008.88;1038570;28;20167;-72
2023/04/06 01:04:22;;;;;;;16.33;8.30;;;;;;;-1.98;100.00;96008.88;1038813;28;20045;-73
2023/04/06 01:04:54;;;;;;;13.02;7.97;;;;;;;-2.02;100.00;96010.22;1041254;28;20025;-72
2023/04/06 01:05:24;;;;;;;13.80;7.60;;;;;;;-2.11;100.00;95994.09;1041143;28;20021;-72
2023/04/06 01:05:58;;;;;;;13.30;7.50;;;;;;;-2.02;100.00;96007.66;1038943;28;20396;-72
2023/04/06 01:06:28;;;;;;;19.05;8.05;;;;;;;-2.11;100.00;95998.41;1038238;28;20033;-73
2023/04/06 01:06:59;;;;;;;13.33;8.10;;;;;;;-2.06;100.00;96008.97;1037516;28;20414;-72
2023/04/06 01:07:29;;;;;;;17.03;8.77;;;;;;;-2.04;100.00;96005.28;1030681;28;20050;-72
2023/04/06 01:08:00;;;;;;;13.90;8.33;;;;;;;-2.08;100.00;95995.50;1034062;28;20014;-73
2023/04/06 01:08:30;;;;;;;11.73;7.93;;;;;;;-2.04;100.00;96007.84;1037742;28;20053;-72
2023/04/06 01:09:01;;;;;;;15.70;8.00;;;;;;;-1.99;100.00;96008.09;1030181;28;20432;-72
2023/04/06 01:09:32;;;;;;;13.50;7.50;;;;;;;-2.07;100.00;95995.34;1030229;28;20019;-72
2023/04/06 01:10:03;;;;;;;15.20;8.20;;;;;;;-2.05;100.00;95997.72;1030363;28;20022;-72
2023/04/06 01:10:34;;;;;;;11.73;7.20;;;;;;;-1.98;100.00;96001.16;1034231;28;20412;-72
2023/04/06 01:11:04;;;;;;;11.40;7.38;;;;;;;-1.97;100.00;96011.28;1038345;28;20475;-72
2023/04/06 01:11:35;;;;;;;14.97;7.73;;;;;;;-1.99;100.00;96007.31;1034264;28;20397;-72
2023/04/06 01:12:06;;;;;;;10.13;6.93;;;;;;;-2.02;100.00;96002.50;1040290;28;20031;-73
2023/04/06 01:12:38;;;;;;;12.53;7.80;;;;;;;-2.01;100.00;95996.38;1034532;28;20597;-73
2023/04/06 01:13:09;;;;;;;11.65;8.07;;;;;;;-1.99;100.00;95999.59;1034205;28;20169;-73
2023/04/06 01:13:39;;;;;;;14.33;7.73;;;;;;;-2.01;100.00;96004.09;1035137;28;20129;-73
2023/04/06 01:14:10;;;;;;;13.10;7.80;;;;;;;-1.98;100.00;96002.00;1034510;28;20215;-72
2023/04/06 01:14:40;;;;;;;13.10;7.80;;;;;;;-1.96;100.00;96009.53;1033485;28;20058;-72
2023/04/06 01:15:11;;;;;;;11.73;7.50;;;;;;;-1.97;100.00;96003.59;1030247;28;20029;-72
2023/04/06 01:15:42;;;;;;;14.00;7.90;;;;;;;-2.05;100.00;95992.56;1037514;28;20036;-72
2023/04/06 01:16:12;;;;;;;12.90;7.80;;;;;;;-1.96;100.00;96001.81;1038387;28;20065;-72
2023/04/06 01:16:43;;;;;;;12.93;7.70;;;;;;;-1.99;100.00;95999.59;1038629;28;20028;-72
2023/04/06 01:17:13;;;;;;;15.90;7.32;;;;;;;-1.97;100.00;96006.16;1031655;28;20080;-72
2023/04/06 01:17:44;;;;;;;14.70;7.85;;;;;;;-2.01;100.00;95992.06;1030479;28;20050;-72
2023/04/06 01:18:15;;;;;;;12.47;7.63;;;;;;;-1.98;100.00;96004.56;1034395;28;20114;-72
2023/04/06 01:18:45;;;;;;;13.25;7.43;;;;;;;-1.96;100.00;96006.94;1029960;28;20106;-72
2023/04/06 01:19:16;;;;;;;11.00;7.07;;;;;;;-1.97;100.00;96002.78;1026224;28;20504;-72
2023/04/06 01:19:49;;;;;;;12.52;7.97;;;;;;;-1.96;100.00;96001.81;1030102;28;20520;-72
2023/04/06 01:20:19;;;;;;;13.43;7.95;;;;;;;-1.96;100.00;95999.25;1027147;28;20516;-72
2023/04/06 01:20:50;;;;;;;12.20;7.90;;;;;;;-1.97;100.00;95998.44;1030222;28;20026;-72
2023/04/06 01:21:20;;;;;;;13.67;8.00;;;;;;;-1.98;100.00;96003.75;1030522;28;20070;-72
2023/04/06 01:21:53;;;;;;;14.00;7.47;;;;;;;-1.97;100.00;95997.66;1030789;28;20018;-72
2023/04/06 01:22:24;;;;;;;12.80;7.47;;;;;;;-1.98;100.00;96004.56;1026482;28;20014;-72
2023/04/06 01:22:54;;;;;;;14.52;7.90;;;;;;;-2.05;100.00;95990.00;1030072;28;20610;-72
2023/04/06 01:23:25;;;;;;;12.47;7.37;;;;;;;-2.23;100.00;95965.47;1034362;28;20037;-73
2023/04/06 01:23:55;;;;;;;21.70;7.63;;;;;;;-2.03;100.00;95998.34;1038374;28;20013;-72
2023/04/06 01:24:26;;;;;;;10.98;7.75;;;;;;;-2.11;100.00;95988.97;1033982;28;20569;-73
2023/04/06 01:24:56;;;;;;;13.60;8.03;;;;;;;-2.06;100.00;95991.78;1030436;28;20022;-73
2023/04/06 01:25:27;;;;;;;11.07;7.20;;;;;;;-2.00;100.00;96000.56;1034149;28;20026;-72
2023/04/06 01:25:57;;;;;;;17.07;8.33;;;;;;;-1.99;100.00;95999.59;1034414;28;20022;-73
2023/04/06 01:26:29;;;;;;;12.67;7.83;;;;;;;-2.04;100.00;95996.75;1030238;28;20014;-73
2023/04/06 01:27:00;;;;;;;15.98;8.14;;;;;;;-2.05;100.00;95988.22;1034048;28;20029;-73
2023/04/06 01:27:31;;;;;;;12.58;7.74;;;;;;;-2.08;100.00;95980.06;1030699;28;20129;-73
2023/04/06 01:28:01;;;;;;;15.03;7.60;;;;;;;-1.98;100.00;95998.59;1025926;28;20390;-73
2023/04/06 01:28:32;;;;;;;12.53;7.60;;;;;;;-1.97;100.00;95995.88;1030128;28;20026;-73
2023/04/06 01:29:02;;;;;;;13.33;7.63;;;;;;;-2.02;100.00;95989.66;1030369;28;20058;-72
2023/04/06 01:29:33;;;;;;;14.67;7.30;;;;;;;-1.98;100.00;95998.59;1030057;28;20030;-73
2023/04/06 01:30:04;;;;;;;13.37;7.53;;;;;;;-2.00;100.00;95998.00;1034472;28;20018;-73
2023/04/06 01:30:35;;;;;;;12.23;6.88;;;;;;;-2.01;100.00;95999.78;1030336;28;20035;-73
2023/04/06 01:31:08;;;;;;;10.20;6.77;;;;;;;-2.04;100.00;95992.41;1038316;28;20479;-73
2023/04/06 01:31:39;;;;;;;14.70;7.95;;;;;;;-2.07;100.00;95985.06;1033771;28;20025;-73
2023/04/06 01:32:09;;;;;;;12.70;6.83;;;;;;;-2.02;100.00;95998.16;1034809;28;20037;-73
2023/04/06 01:32:40;;;;;;;13.33;7.83;;;;;;;-2.03;100.00;95995.78;1038222;28;20120;-74
2023/04/06 01:33:11;;;;;;;16.50;8.27;;;;;;;-2.08;100.00;95985.22;1034560;28;20140;-72
2023/04/06 01:33:42;;;;;;;13.97;8.57;;;;;;;-2.05;100.00;95998.50;1034028;28;20014;-73
2023/04/06 01:34:12;;;;;;;11.80;7.53;;;;;;;-2.08;100.00;95988.59;1034597;28;20539;-73
2023/04/06 01:34:43;;;;;;;13.17;7.80;;;;;;;-2.10;100.00;95990.53;1033686;28;20079;-73
2023/04/06 01:35:13;;;;;;;15.30;7.93;;;;;;;-2.05;100.00;95998.50;1038364;28;20060;-73
2023/04/06 01:35:44;;;;;;;12.47;7.87;;;;;;;-2.05;100.00;95997.72;1042697;28;20122;-73
2023/04/06 01:36:14;;;;;;;12.47;8.13;;;;;;;-2.07;100.00;95999.69;1033938;28;20116;-73
2023/04/06 01:36:45;;;;;;;14.87;7.97;;;;;;;-2.07;100.00;95994.53;1038376;28;20022;-73
2023/04/06 01:37:16;;;;;;;13.73;7.83;;;;;;;-2.17;100.00;95980.19;1046647;28;20070;-73
2023/04/06 01:37:46;;;;;;;12.50;7.53;;;;;;;-2.11;100.00;95993.28;1039344;28;20021;-72
2023/04/06 01:38:17;;;;;;;13.75;7.85;;;;;;;-2.11;100.00;95993.28;1035199;28;20106;-73
2023/04/06 01:38:47;;;;;;;16.17;8.20;;;;;;;-2.15;100.00;95988.53;1026716;28;20181;-73
2023/04/06 01:39:19;;;;;;;13.67;8.30;;;;;;;-2.13;100.00;95996.03;1031151;28;20100;-73
2023/04/06 01:39:50;;;;;;;13.23;8.40;;;;;;;-2.13;100.00;95991.69;1031149;28;20064;-73
2023/04/06 01:40:20;;;;;;;14.25;7.78;;;;;;;-2.11;100.00;95990.72;1031544;28;20023;-73
2023/04/06 01:40:51;;;;;;;11.95;7.32;;;;;;;-2.14;100.00;95990.09;1034407;28;20105;-73
2023/04/06 01:41:21;;;;;;;13.07;7.47;;;;;;;-2.19;100.00;95986.47;1034394;28;20583;-73
2023/04/06 01:41:52;;;;;;;13.33;8.03;;;;;;;-2.10;100.00;95994.91;1030050;28;20113;-73
2023/04/06 01:42:22;;;;;;;14.07;8.00;;;;;;;-2.10;100.00;95989.75;1026446;28;20047;-74
2023/04/06 01:42:53;;;;;;;11.80;8.23;;;;;;;-2.08;100.00;95992.94;1026239;28;20019;-73
2023/04/06 01:43:23;;;;;;;13.02;7.75;;;;;;;-2.14;100.00;95979.81;1026232;28;20022;-73
2023/04/06 01:43:54;;;;;;;12.97;7.93;;;;;;;-2.08;100.00;95985.22;1034696;28;20030;-73
2023/04/06 01:44:25;;;;;;;12.20;7.10;;;;;;;-2.07;100.00;95990.19;1038140;28;20117;-73
2023/04/06 01:44:55;;;;;;;15.27;8.80;;;;;;;-2.11;100.00;95983.81;1039772;28;20223;-73
2023/04/06 01:45:26;;;;;;;13.13;8.00;;;;;;;-2.08;100.00;95988.59;1038569;28;20028;-73
2023/04/06 01:45:56;;;;;;;17.30;8.73;;;;;;;-2.08;100.00;95991.16;1034279;28;20057;-73
2023/04/06 01:46:27;;;;;;;14.77;8.17;;;;;;;-2.09;100.00;95981.06;1038306;28;20064;-73
2023/04/06 01:46:57;;;;;;;13.67;8.17;;;;;;;-2.10;100.00;95985.41;1034433;28;20026;-73
2023/04/06 01:47:28;;;;;;;14.97;8.27;;;;;;;-2.09;100.00;95978.50;1042713;28;21141;-73
2023/04/06 01:47:58;;;;;;;15.57;8.27;;;;;;;-2.13;100.00;95981.41;1042713;28;20546;-73
2023/04/06 01:48:29;;;;;;;12.13;7.70;;;;;;;-2.17;100.00;95974.25;1042166;28;20013;-73
2023/04/06 01:49:00;;;;;;;15.70;8.93;;;;;;;-2.14;100.00;95987.53;1034146;28;20017;-73
2023/04/06 01:49:30;;;;;;;12.65;7.63;;;;;;;-2.17;100.00;95976.81;1030639;28;20074;-73
2023/04/06 01:50:02;;;;;;;16.83;7.77;;;;;;;-2.13;100.00;95983.97;1032200;28;20026;-73
2023/04/06 01:50:32;;;;;;;12.05;7.75;;;;;;;-2.17;100.00;95985.31;1039079;28;20187;-73
2023/04/06 01:51:03;;;;;;;14.40;8.17;;;;;;;-2.17;100.00;95982.75;1038355;28;20196;-73
2023/04/06 01:51:34;;;;;;;13.50;7.70;;;;;;;-2.20;100.00;95980.53;1037731;28;20018;-73
2023/04/06 01:52:05;;;;;;;13.87;7.63;;;;;;;-2.19;100.00;95984.69;1034636;28;20026;-73
2023/04/06 01:52:35;;;;;;;13.77;6.97;;;;;;;-2.22;100.00;95977.31;1034143;28;20056;-73
2023/04/06 01:53:05;;;;;;;13.10;8.20;;;;;;;-2.27;100.00;95976.28;1034202;28;20952;-73
2023/04/06 01:53:36;;;;;;;13.20;7.13;;;;;;;-2.30;100.00;95972.28;1034089;28;20034;-73
2023/04/06 01:54:06;;;;;;;16.27;8.17;;;;;;;-2.45;100.00;95956.03;1034411;28;20919;-73
2023/04/06 01:54:37;;;;;;;13.57;7.83;;;;;;;-2.25;100.00;95979.44;1042069;28;20021;-73
2023/04/06 01:55:07;;;;;;;13.03;7.70;;;;;;;-2.26;100.00;95981.22;1042116;28;20588;-73
2023/04/06 01:55:38;;;;;;;11.30;7.63;;;;;;;-2.31;100.00;95973.25;1046390;28;20024;-73
2023/04/06 01:56:09;;;;;;;13.80;8.77;;;;;;;-2.27;100.00;95984.78;1034283;28;20049;-73
2023/04/06 01:56:40;;;;;;;14.60;8.33;;;;;;;-2.26;100.00;95980.44;1029945;28;20077;-73
2023/04/06 01:57:10;;;;;;;12.07;7.65;;;;;;;-2.31;100.00;95975.00;1030012;28;20018;-73
2023/04/06 01:57:41;;;;;;;13.27;8.33;;;;;;;-2.28;100.00;95977.22;1038348;28;20112;-73
2023/04/06 01:58:12;;;;;;;17.27;7.70;;;;;;;-2.36;100.00;95967.84;1034405;28;20168;-73
2023/04/06 01:58:42;;;;;;;13.40;7.90;;;;;;;-2.37;100.00;95961.13;1034044;28;20108;-73
2023/04/06 01:59:13;;;;;;;10.47;7.23;;;;;;;-2.31;100.00;95972.44;1026090;28;20457;-73
2023/04/06 01:59:43;;;;;;;14.57;7.57;;;;;;;-2.41;100.00;95960.66;1034172;28;20033;-73
2023/04/06 02:00:15;;;;;;;13.13;7.13;;;;;;;-2.35;100.00;95972.00;1032617;28;20089;-73
2023/04/06 02:00:45;;;;;;;11.13;7.30;;;;;;;-2.46;100.00;95965.53;1029995;28;20476;-73
2023/04/06 02:01:16;;;;;;;11.37;7.63;;;;;;;-2.47;100.00;95961.38;1029899;28;20057;-73
2023/04/06 02:01:46;;;;;;;13.37;6.83;;;;;;;-2.49;100.00;95963.28;1035552;28;20116;-73
2023/04/06 02:02:17;;;;;;;11.17;6.93;;;;;;;-2.48;100.00;95966.66;1034342;28;20045;-72
2023/04/06 02:02:47;;;;;;;12.90;8.53;;;;;;;-2.48;100.00;95974.38;1022255;28;20584;-73
2023/04/06 02:03:18;;;;;;;11.97;7.30;;;;;;;-2.49;100.00;95975.34;1022079;28;20046;-73
2023/04/06 02:03:48;;;;;;;19.47;8.57;;;;;;;-2.53;100.00;95974.09;1021892;28;20060;-72
2023/04/06 02:04:19;;;;;;;10.97;7.03;;;;;;;-2.51;100.00;95987.59;1030518;28;20038;-72
2023/04/06 02:04:49;;;;;;;13.50;7.80;;;;;;;-2.63;100.00;95964.88;1029195;28;20019;-73
2023/04/06 02:05:20;;;;;;;11.50;7.63;;;;;;;-2.59;100.00;95980.72;1027499;28;20022;-73
2023/04/06 02:05:50;;;;;;;12.33;7.50;;;;;;;-2.61;100.00;95975.78;1030303;28;20057;-72
2023/04/06 02:06:21;;;;;;;10.63;7.03;;;;;;;-2.67;100.00;95971.34;1034194;28;20049;-73
2023/04/06 02:06:51;;;;;;;11.73;7.60;;;;;;;-2.65;100.00;95984.00;1033295;28;20159;-73
2023/04/06 02:07:22;;;;;;;15.30;7.30;;;;;;;-2.66;100.00;95978.06;1030139;28;20019;-72
2023/04/06 02:07:52;;;;;;;15.83;7.97;;;;;;;-2.69;100.00;95975.84;1040994;28;20418;-73
2023/04/06 02:08:23;;;;;;;11.10;7.20;;;;;;;-2.68;100.00;95977.47;1034581;28;20018;-73
2023/04/06 02:08:53;;;;;;;12.20;7.17;;;;;;;-2.71;100.00;95977.81;1033632;28;20021;-73
2023/04/06 02:09:24;;;;;;;11.67;7.20;;;;;;;-2.72;100.00;95973.63;1033941;28;20052;-73
2023/04/06 02:09:55;;;;;;;12.60;6.80;;;;;;;-2.79;100.00;95964.22;1030339;28;20114;-72
2023/04/06 02:10:25;;;;;;;11.45;7.03;;;;;;;-2.74;100.00;95978.16;1028509;28;20042;-73
2023/04/06 02:10:56;;;;;;;15.93;7.60;;;;;;;-2.75;100.00;95981.69;1038243;28;20392;-73
2023/04/06 02:11:26;;;;;;;14.23;7.47;;;;;;;-2.77;100.00;95977.69;1042606;28;20859;-73
2023/04/06 02:11:57;;;;;;;13.00;8.17;;;;;;;-2.77;100.00;95977.69;1038064;28;20089;-73
2023/04/06 02:12:27;;;;;;;11.47;7.57;;;;;;;-2.79;100.00;95975.28;1042561;28;20017;-73
2023/04/06 02:12:58;;;;;;;12.97;7.60;;;;;;;-2.80;100.00;95983.16;1038054;28;20061;-73
2023/04/06 02:13:29;;;;;;;11.77;7.63;;;;;;;-2.82;100.00;95974.84;1038086;28;20110;-73
2023/04/06 02:14:00;;;;;;;10.43;7.50;;;;;;;-2.83;100.00;95976.59;1042980;28;20021;-73
2023/04/06 02:14:31;;;;;;;12.98;8.20;;;;;;;-2.81;100.00;95981.59;1037409;28;20460;-73
2023/04/06 02:15:01;;;;;;;12.13;7.33;;;;;;;-2.81;100.00;95974.69;1031996;28;20088;-72
2023/04/06 02:15:32;;;;;;;15.13;8.93;;;;;;;-2.81;100.00;95977.25;1032103;28;20352;-73
2023/04/06 02:16:02;;;;;;;14.80;7.73;;;;;;;-2.82;100.00;95980.75;1029167;28;20050;-73
2023/04/06 02:16:33;;;;;;;13.33;7.83;;;;;;;-2.83;100.00;95975.81;1030584;28;20038;-73
2023/04/06 02:17:04;;;;;;;10.77;7.17;;;;;;;-2.84;100.00;95975.03;1038056;28;20025;-73
2023/04/06 02:17:34;;;;;;;16.17;7.60;;;;;;;-2.86;100.00;95982.88;1034323;28;20062;-73
2023/04/06 02:18:05;;;;;;;13.53;6.97;;;;;;;-2.85;100.00;95981.09;1038795;28;20091;-73
2023/04/06 02:18:35;;;;;;;14.83;7.87;;;;;;;-2.95;100.00;95970.28;1029881;28;20054;-73
2023/04/06 02:19:06;;;;;;;12.17;7.27;;;;;;;-2.89;100.00;95972.16;1029694;28;20171;-73
2023/04/06 02:19:36;;;;;;;11.23;6.97;;;;;;;-2.89;100.00;95979.84;1030626;28;20057;-73
2023/04/06 02:20:07;;;;;;;10.60;7.13;;;;;;;-2.96;100.00;95966.91;1030140;28;20030;-73
2023/04/06 02:20:38;;;;;;;13.10;7.43;;;;;;;-2.91;100.00;95980.03;1024796;28;20027;-73
2023/04/06 02:21:09;;;;;;;12.37;7.53;;;;;;;-2.91;100.00;95981.81;1030239;28;20337;-73